Terminal Aerodrome Forecast
Issued by NWS

Home | Current Version | Previous Version | Text Only | Print | Product List | Glossary On
Versions: 1 2 3 4 5 6 7 8 9 10 11 12
926
FTUS43 KAPX 031120
TAFTVC
TAF
KTVC 031120Z 0312/0412 23007KT P6SM SKC
     FM031800 25010G16KT P6SM BKN180
     FM032300 24008KT P6SM BKN060
     FM040200 27005KT P6SM -SHRA SCT007 OVC040
     FM040500 30005KT P6SM VCSH BKN007 OVC035=

USA.gov is the U.S. government's official web portal to all federal, state and local government web resources and services.